LESTLPPR

Guest
Details From LEST - Santiago
To LPPR - Porto
Flight Number -
Tags generated
Created
Modified
Stats Distance 100 nm / 185 km
Max Altitude 10,600 ft / 3,231 m
Waypoints 3
Social Downloads 3
Likes 0
Share VATSIM

Download

Looking for another format? Having issues loading an existing format? Contact us
Advertisement - Login to hide

Notes

Basic altitude profile: - Ascent Rate: 2500ft/min - Ascent Speed: 250kts - Cruise Altitude: 200ft - Cruise Speed: 420kts - Descent Rate: 1500ft/min - Descent Speed: 250kts Options: - Use NATs: yes - Use PACOTS: yes - Use low airways: no - Use high airways: yes

Route

LEST TURON LPPR

ID Type Via Altitude Latitude Longitude Leg Dist Tot Dist Heading (true) Name
O LEST APT - 0 ft / 0 m 42.89780˚ -8.41569˚ - 0 nm - Santiago
TURON FIX - 10,600 ft / 3,231 m 42.06792˚ -8.56342˚ 50 nm 50 nm 188° / 187° -
O LPPR APT - 0 ft / 0 m 41.24793˚ -8.68122˚ 49 nm 99 nm 186° / 186° Porto

Altitude Profile

Advertisement - Login to hide

LEST

Details ICAO LEST (SCQ)
Name Santiago
Region Spain
Timezone Europe/Madrid (UTC+2.0)
Stats Elevation 1,169 ft / 356 m (AMSL)
Location 42.897797° -8.415691°
Runways 1
Magnetic Variation 2.312° W

METAR

LEST 252100Z 02009KT 340V070 3000 -RA SCT004 BKN006 13/13 Q1015 NOSIG

Decode

TAF

TAF LEST 251700Z 2518/2618 02009KT 8000 SCT010 BKN020 TX19/2614Z TN12/2605Z TEMPO 2518/2618 3000 RA BR BKN010 PROB40 TEMPO 2518/2603 3000 SHRA SCT030TCU PROB30 TEMPO 2518/2521 TS SCT030CB TEMPO 2521/2612 1500 BCFG BKN005 TEMPO 2603/2609 0350 FG BKN001

Decode

Departure Runways

ID Width Length Bearing (true) Bearing (mag) Surface Threshold Offset Overrun Length
17 148 ft / 45 m 10,509 ft / 3,203 m 166.04° 168.35° Asphalt 394 ft / 120 m 0 ft / 0 m
35 148 ft / 45 m 10,509 ft / 3,203 m 346.05° 348.36° Asphalt 0 ft / 0 m 197 ft / 60 m

LPPR

Details ICAO LPPR (OPO)
Name Porto
Region Portugal
Timezone Europe/Lisbon (UTC+1.0)
Stats Elevation 228 ft / 69 m (AMSL)
Location 41.247932° -8.681221°
Runways 1
Magnetic Variation 2.282° W

METAR

LPPR 252100Z 02003KT 7000 -RA FEW006 15/15 Q1013

Decode

TAF

TAF LPPR 251700Z 2518/2618 VRB03KT 9999 SCT020 TEMPO 2518/2521 8000 SHRA SCT006 BKN012 FEW025CB BECMG 2600/2603 08005KT PROB30 TEMPO 2603/2608 3000 BR SCT002 BECMG 2609/2612 25010KT BECMG 2613/2615 30007KT

Decode

Destination Runways

ID Width Length Bearing (true) Bearing (mag) Surface Threshold Offset Overrun Length
17 148 ft / 45 m 11,451 ft / 3,490 m 168.88° 171.16° Asphalt 984 ft / 300 m 220 ft / 67 m
35 148 ft / 45 m 11,451 ft / 3,490 m 348.89° 351.17° Asphalt 492 ft / 150 m 370 ft / 113 m

Approach Navaids

Runway Type Ident Frequency Range Bearing (true) Bearing (mag) Slope Elevation
17 Localiser PR 109.90 MHz 18 nm / 33 km 168.87° 171.15° - 228 ft / 69 m (AMSL)
17 Glidescope PR 109.90 MHz 10 nm / 19 km 168.88° 171.17° 2.72° 228 ft / 69 m (AMSL)
17 DME PR 109.90 MHz 18 nm / 33 km - - - 228 ft / 69 m (AMSL)

Popular Alternatives